Time;durP1;ratioP1;P1;durP2;ratioP2;P2;SDS_P1;SDS_P2;PMS_P1;PMS_P2;Temp;Humidity;BMP_temperature;BMP_pressure;BME280_temperature;BME280_humidity;BME280_pressure;Samples;Min_cycle;Max_cycle;Signal;HPM_P1;HPM_P2
2022/02/01 00:02:08;;;;;;;32.28;14.35;;;;;;;0.09;75.98;96595.81;4992277;28;20117;-60
2022/02/01 00:04:49;;;;;;;39.03;15.02;;;;;;;0.00;75.94;96595.44;4990144;28;20070;-61
2022/02/01 00:17:21;;;;;;;33.00;13.70;;;;;;;0.18;75.74;96586.59;4991744;28;20074;-60
2022/02/01 00:20:14;;;;;;;34.63;15.40;;;;;;;0.30;75.11;96584.66;5007094;28;20507;-60
2022/02/01 00:36:22;;;;;;;35.58;15.60;;;;;;;-0.02;75.50;96585.25;4971586;28;20492;-59
2022/02/01 00:39:02;;;;;;;35.83;14.98;;;;;;;-0.07;75.88;96573.97;4971345;28;20061;-61
2022/02/01 00:41:33;;;;;;;31.65;14.38;;;;;;;-0.05;74.88;96582.34;4987364;28;20129;-61
2022/02/01 00:44:00;;;;;;;31.77;14.77;;;;;;;0.09;75.82;96591.41;4987175;28;20045;-61
2022/02/01 00:46:27;;;;;;;32.38;14.80;;;;;;;0.10;75.69;96592.97;4972652;28;20043;-60
2022/02/01 00:48:53;;;;;;;29.45;13.52;;;;;;;0.15;74.37;96598.25;4975891;28;20044;-60
2022/02/01 00:51:19;;;;;;;32.35;14.27;;;;;;;0.14;74.27;96586.25;4990828;28;20050;-62
2022/02/01 00:53:45;;;;;;;31.77;13.30;;;;;;;0.02;74.27;96587.38;5003292;28;20046;-61
2022/02/01 00:56:13;;;;;;;27.90;12.98;;;;;;;0.03;75.35;96591.53;4991953;28;20070;-61
2022/02/01 00:58:39;;;;;;;26.00;12.95;;;;;;;0.06;75.93;96588.47;4989639;28;20077;-61
2022/02/01 01:01:05;;;;;;;27.95;13.48;;;;;;;0.15;74.68;96589.66;4973033;28;20476;-62
2022/02/01 01:03:49;;;;;;;31.98;14.25;;;;;;;0.09;74.49;96590.59;4972613;28;20385;-60
2022/02/01 01:06:15;;;;;;;28.95;13.52;;;;;;;0.21;75.33;96601.72;4972448;28;20093;-63
2022/02/01 01:08:42;;;;;;;28.83;13.57;;;;;;;0.29;74.75;96593.47;4987237;28;20051;-60
2022/02/01 01:11:09;;;;;;;31.75;14.02;;;;;;;0.35;74.38;96589.13;4987161;28;20039;-60
2022/02/01 01:54:01;;;;;;;31.38;14.98;;;;;;;0.26;73.97;96614.81;4990044;28;20130;-60
2022/02/01 01:56:29;;;;;;;34.15;16.13;;;;;;;0.14;74.17;96607.09;4990001;28;20133;-62
2022/02/01 01:58:55;;;;;;;36.65;15.18;;;;;;;0.19;74.36;96609.78;4989624;28;20053;-61
2022/02/01 02:01:22;;;;;;;34.67;16.48;;;;;;;0.25;73.92;96615.06;4974926;28;20054;-62
2022/02/01 02:03:49;;;;;;;33.08;14.70;;;;;;;0.19;74.34;96614.97;4973643;28;20043;-60
2022/02/01 02:06:17;;;;;;;28.20;14.52;;;;;;;0.14;73.97;96621.94;4989766;28;20050;-60
2022/02/01 02:08:46;;;;;;;31.75;14.85;;;;;;;0.05;74.12;96612.94;4989773;28;20049;-62
2022/02/01 02:12:10;;;;;;;31.08;16.15;;;;;;;0.18;74.10;96617.84;4975001;28;20046;-62
2022/02/01 02:16:59;;;;;;;39.22;17.42;;;;;;;0.19;73.97;96614.19;4974694;28;20483;-59
2022/02/01 02:19:26;;;;;;;35.47;18.15;;;;;;;0.11;73.99;96622.41;4974903;28;20046;-61
2022/02/01 02:21:54;;;;;;;36.22;16.38;;;;;;;0.15;74.12;96624.31;4989549;28;20321;-61
2022/02/01 02:24:20;;;;;;;44.95;19.85;;;;;;;0.16;73.99;96620.66;4974389;28;20059;-59
2022/02/01 02:26:48;;;;;;;54.58;24.17;;;;;;;0.15;74.45;96613.91;4972520;28;20046;-62
2022/02/01 02:29:15;;;;;;;35.55;16.42;;;;;;;0.07;74.07;96623.91;4974765;28;20046;-62
2022/02/01 02:31:44;;;;;;;35.45;16.70;;;;;;;0.19;74.07;96630.63;4974324;28;20117;-62
2022/02/01 02:34:14;;;;;;;36.75;16.85;;;;;;;0.19;73.60;96628.00;4992579;28;20039;-61
2022/02/01 02:36:44;;;;;;;36.53;16.50;;;;;;;0.18;73.71;96633.47;4992588;28;20072;-61
2022/02/01 02:42:07;;;;;;;40.83;18.17;;;;;;;0.15;74.26;96629.53;4992049;28;20070;-61
2022/02/01 02:47:18;;;;;;;39.60;16.17;;;;;;;0.22;74.96;96644.97;4989204;28;20421;-60
2022/02/01 02:49:44;;;;;;;28.90;14.82;;;;;;;0.23;74.00;96639.53;4983173;28;20042;-62
2022/02/01 02:52:10;;;;;;;33.67;15.98;;;;;;;0.25;74.53;96647.09;4993339;28;20038;-61
2022/02/01 02:54:36;;;;;;;28.05;14.38;;;;;;;0.30;74.67;96641.19;4993218;28;20085;-62
2022/02/01 02:57:08;;;;;;;33.05;14.93;;;;;;;0.24;73.81;96642.94;4993110;28;20046;-61
2022/02/01 02:59:34;;;;;;;32.90;14.82;;;;;;;0.27;74.32;96646.88;5007987;28;20121;-61
2022/02/01 03:02:02;;;;;;;33.45;13.93;;;;;;;0.25;74.39;96646.31;4993122;28;20056;-61
2022/02/01 03:04:30;;;;;;;31.60;14.13;;;;;;;0.18;73.35;96642.06;4991884;28;20050;-59
2022/02/01 03:06:56;;;;;;;33.15;14.10;;;;;;;0.22;74.28;96647.59;4993290;28;20217;-61
2022/02/01 03:09:23;;;;;;;29.52;14.32;;;;;;;-0.03;74.12;96632.34;4993107;28;20133;-63
2022/02/01 03:11:50;;;;;;;30.95;13.85;;;;;;;0.10;74.52;96646.88;4990993;28;20470;-60
2022/02/01 03:22:14;;;;;;;29.88;14.88;;;;;;;0.19;73.94;96669.69;4992978;28;20406;-61
2022/02/01 03:24:39;;;;;;;32.35;15.02;;;;;;;0.17;73.58;96678.75;5007631;28;20141;-63
2022/02/01 03:27:05;;;;;;;30.95;14.35;;;;;;;0.16;73.17;96675.38;5007754;28;20467;-62
2022/02/01 03:29:31;;;;;;;31.38;14.95;;;;;;;0.13;73.59;96678.44;4992241;28;20570;-60
2022/02/01 03:31:57;;;;;;;29.70;14.45;;;;;;;0.11;74.23;96679.72;5007538;28;20046;-60
2022/02/01 03:34:23;;;;;;;27.95;14.07;;;;;;;0.10;73.26;96680.75;4992082;28;20042;-61
2022/02/01 03:36:49;;;;;;;29.60;14.27;;;;;;;0.08;72.74;96688.00;4992709;28;20074;-60
2022/02/01 03:39:15;;;;;;;25.45;13.43;;;;;;;0.06;72.79;96692.66;4992538;28;20050;-60
2022/02/01 03:41:41;;;;;;;27.45;14.35;;;;;;;0.00;72.53;96694.41;5007597;28;20197;-61
2022/02/01 03:44:07;;;;;;;31.90;14.68;;;;;;;-0.09;72.84;96688.78;4992925;28;20121;-61
2022/02/01 03:46:33;;;;;;;25.83;12.93;;;;;;;-0.04;73.64;96693.28;4991140;28;20428;-60
2022/02/01 03:48:59;;;;;;;27.20;13.90;;;;;;;-0.06;72.78;96703.13;5007049;28;20081;-61
2022/02/01 03:51:24;;;;;;;27.50;13.10;;;;;;;-0.11;73.12;96696.03;5007711;28;20042;-63
2022/02/01 03:53:50;;;;;;;28.48;13.32;;;;;;;-0.14;72.82;96695.72;4990661;28;20133;-61
2022/02/01 03:56:16;;;;;;;26.58;13.48;;;;;;;-0.16;73.06;96689.94;4992339;28;20097;-64
2022/02/01 03:58:42;;;;;;;26.05;12.48;;;;;;;-0.20;73.10;96688.84;4980402;28;20121;-62
2022/02/01 04:01:08;;;;;;;25.23;12.00;;;;;;;-0.22;72.85;96694.28;4971627;28;20046;-62
2022/02/01 04:03:33;;;;;;;24.48;12.88;;;;;;;-0.32;72.30;96692.28;4972649;28;20563;-62
2022/02/01 04:05:59;;;;;;;24.67;12.43;;;;;;;-0.38;73.34;96706.25;4972679;28;20093;-60
2022/02/01 04:08:25;;;;;;;27.65;12.50;;;;;;;-0.35;73.52;96699.78;4972575;28;20093;-60
2022/02/01 04:10:51;;;;;;;22.08;11.60;;;;;;;-0.35;73.09;96703.19;4987644;28;20051;-61
2022/02/01 04:13:19;;;;;;;27.67;12.27;;;;;;;-0.30;72.72;96703.25;4972924;28;20045;-61
2022/02/01 04:15:45;;;;;;;23.85;12.07;;;;;;;-0.34;72.79;96699.53;4972601;28;20042;-62
2022/02/01 04:18:11;;;;;;;24.92;12.10;;;;;;;-0.37;73.04;96700.00;4969432;28;20428;-62
2022/02/01 04:20:38;;;;;;;23.77;11.23;;;;;;;-0.49;72.59;96691.47;4974817;28;20046;-62
2022/02/01 04:23:04;;;;;;;25.35;12.15;;;;;;;-0.41;73.32;96698.91;4990292;28;20476;-60
2022/02/01 04:25:30;;;;;;;26.58;12.27;;;;;;;-0.46;72.93;96691.00;4991482;28;20073;-61
2022/02/01 04:27:56;;;;;;;25.92;12.57;;;;;;;-0.38;72.20;96692.41;5000870;28;20085;-60
2022/02/01 04:30:24;;;;;;;23.83;11.15;;;;;;;-0.34;71.91;96704.75;4992100;28;20042;-60
2022/02/01 04:32:54;;;;;;;22.33;11.88;;;;;;;-0.34;72.52;96702.13;5007024;28;20065;-61
2022/02/01 04:35:21;;;;;;;;;;;;;;;-0.30;72.16;96711.06;4991271;28;20104;-60
2022/02/01 04:37:47;;;;;;;24.58;11.13;;;;;;;-0.39;72.64;96709.06;4992149;28;19965;-61
2022/02/01 04:40:15;;;;;;;25.77;11.88;;;;;;;-0.36;72.71;96711.22;4992060;28;20042;-60
2022/02/01 04:42:41;;;;;;;21.40;11.20;;;;;;;-0.41;71.89;96711.09;4990070;28;20104;-60
2022/02/01 04:45:12;;;;;;;24.77;12.05;;;;;;;-0.41;72.30;96711.09;4990458;28;20050;-60
2022/02/01 04:47:38;;;;;;;25.77;12.75;;;;;;;-0.33;72.10;96708.13;4991438;28;20042;-61
2022/02/01 04:50:13;;;;;;;27.77;12.02;;;;;;;-0.31;71.56;96719.91;4990595;28;20057;-63
2022/02/01 04:52:40;;;;;;;22.42;11.38;;;;;;;-0.29;72.30;96724.88;4994166;28;20085;-61
2022/02/01 04:55:07;;;;;;;23.33;11.75;;;;;;;-0.35;71.36;96729.22;4992819;28;20050;-59
2022/02/01 04:57:33;;;;;;;24.10;11.45;;;;;;;-0.35;71.82;96729.22;4976052;28;20051;-59
2022/02/01 04:59:58;;;;;;;26.38;12.40;;;;;;;-0.37;71.38;96738.25;4989838;28;20045;-62
2022/02/01 05:02:24;;;;;;;26.20;12.27;;;;;;;-0.48;72.00;96747.69;4995086;28;20404;-59
2022/02/01 05:04:50;;;;;;;29.85;12.48;;;;;;;-0.46;72.22;96743.03;4994278;28;20456;-63
2022/02/01 05:07:20;;;;;;;23.73;11.50;;;;;;;-0.52;72.16;96749.97;4996416;28;20046;-62
2022/02/01 05:09:46;;;;;;;24.17;13.40;;;;;;;-0.58;71.86;96747.50;4995220;28;20042;-60
2022/02/01 05:12:12;;;;;;;25.45;11.45;;;;;;;-0.54;72.43;96752.00;5010314;28;20054;-61
2022/02/01 05:14:38;;;;;;;25.52;12.73;;;;;;;-0.53;72.12;96752.78;4977630;28;20427;-59
2022/02/01 05:17:04;;;;;;;25.33;11.55;;;;;;;-0.54;72.07;96757.19;5009786;28;20120;-58
2022/02/01 05:22:09;;;;;;;23.17;11.85;;;;;;;-0.59;72.42;96764.13;4994926;28;20089;-59
2022/02/01 05:24:38;;;;;;;23.83;11.23;;;;;;;-0.77;72.78;96760.63;4992029;28;20086;-61
2022/02/01 05:27:06;;;;;;;24.58;12.40;;;;;;;-0.75;72.74;96766.41;4975386;28;20039;-60
2022/02/01 05:29:32;;;;;;;25.67;13.00;;;;;;;-0.72;73.12;96763.34;4986951;28;20046;-60
2022/02/01 05:32:00;;;;;;;29.58;14.32;;;;;;;-0.72;72.98;96770.38;4974082;28;20520;-60
2022/02/01 05:34:26;;;;;;;30.15;15.23;;;;;;;-0.70;73.45;96774.31;4979381;28;20057;-62
2022/02/01 05:36:52;;;;;;;28.67;13.57;;;;;;;-0.65;73.49;96776.22;4973996;28;20121;-61
2022/02/01 05:39:23;;;;;;;26.00;12.75;;;;;;;-0.69;72.77;96775.91;4975812;28;20536;-61
2022/02/01 05:41:51;;;;;;;27.55;13.60;;;;;;;-0.66;73.08;96782.47;4975157;28;20508;-60
2022/02/01 05:44:16;;;;;;;28.83;13.18;;;;;;;-0.70;72.77;96787.34;4976558;28;20377;-60
2022/02/01 05:46:42;;;;;;;35.15;15.10;;;;;;;-0.72;73.47;96783.38;4973716;28;20121;-61
2022/02/01 05:49:08;;;;;;;33.65;14.55;;;;;;;-0.75;73.14;96786.44;4973605;28;20118;-61
2022/02/01 05:51:35;;;;;;;30.70;13.90;;;;;;;-0.68;73.22;96787.09;4981861;28;20503;-61
2022/02/01 05:54:01;;;;;;;28.75;13.30;;;;;;;-0.72;73.58;96793.78;4989471;28;20049;-61
2022/02/01 05:56:27;;;;;;;34.78;14.52;;;;;;;-0.68;74.00;96800.09;4994392;28;20046;-60
2022/02/01 05:58:53;;;;;;;32.25;15.38;;;;;;;-0.66;73.34;96803.28;4993959;28;20049;-61
2022/02/01 06:01:20;;;;;;;35.17;16.10;;;;;;;-0.60;73.16;96804.97;4993827;28;20504;-61
2022/02/01 06:03:47;;;;;;;31.30;15.55;;;;;;;-0.67;73.55;96808.72;4973415;28;20046;-60
2022/02/01 06:06:12;;;;;;;38.25;16.00;;;;;;;-0.61;73.75;96813.78;4973573;28;20047;-61
2022/02/01 06:08:38;;;;;;;34.75;15.68;;;;;;;-0.56;73.47;96811.31;4976399;28;20511;-61
2022/02/01 06:11:04;;;;;;;32.97;14.77;;;;;;;-0.49;73.33;96811.97;4994000;28;20042;-61
2022/02/01 06:13:30;;;;;;;31.83;15.93;;;;;;;-0.42;73.18;96821.44;4992935;28;20038;-62
2022/02/01 06:15:56;;;;;;;32.72;15.00;;;;;;;-0.41;72.87;96818.63;4993866;28;20109;-62
2022/02/01 06:18:21;;;;;;;31.60;14.85;;;;;;;-0.51;72.11;96814.00;4985225;28;20054;-61
2022/02/01 06:20:47;;;;;;;38.08;16.23;;;;;;;-0.41;73.07;96830.81;4988856;28;20121;-62
2022/02/01 06:23:14;;;;;;;31.83;15.68;;;;;;;-0.44;72.65;96839.91;4991278;28;20141;-62
2022/02/01 06:28:12;;;;;;;31.77;15.38;;;;;;;-0.41;72.62;96846.44;5028215;28;20038;-61
2022/02/01 06:30:38;;;;;;;34.83;15.07;;;;;;;-0.41;72.26;96838.63;5008933;28;20472;-62
2022/02/01 06:33:03;;;;;;;33.88;15.23;;;;;;;-0.31;71.96;96841.47;4993845;28;20042;-61
2022/02/01 06:35:30;;;;;;;31.45;14.13;;;;;;;-0.35;71.83;96848.16;5008233;28;20504;-63
2022/02/01 06:37:56;;;;;;;34.05;14.55;;;;;;;-0.39;71.83;96847.00;4990382;28;20109;-61
2022/02/01 06:40:22;;;;;;;33.92;15.48;;;;;;;-0.32;71.95;96856.28;4991657;28;20470;-62
2022/02/01 06:42:48;;;;;;;32.63;14.45;;;;;;;-0.30;71.76;96859.44;5003390;28;20117;-61
2022/02/01 06:45:14;;;;;;;34.58;15.45;;;;;;;-0.23;70.87;96856.72;4959145;28;20046;-62
2022/02/01 06:47:39;;;;;;;33.33;13.93;;;;;;;-0.40;71.43;96863.66;4995536;28;20169;-61
2022/02/01 06:50:05;;;;;;;32.67;14.60;;;;;;;-0.33;72.11;96870.31;4986023;28;20050;-62
2022/02/01 06:52:32;;;;;;;32.88;14.43;;;;;;;-0.31;71.70;96873.47;4983280;28;20066;-60
2022/02/01 06:55:01;;;;;;;38.92;15.80;;;;;;;-0.24;71.96;96879.38;4994558;28;20084;-59
2022/02/01 06:57:35;;;;;;;;;;;;;;;-0.31;71.91;96878.69;4967707;28;20125;-62
2022/02/01 07:00:01;;;;;;;32.03;14.27;;;;;;;-0.28;72.34;96883.44;4971446;28;19929;-61
2022/02/01 07:02:26;;;;;;;34.20;14.45;;;;;;;-0.20;72.02;96882.31;5001045;28;20049;-61
2022/02/01 07:04:52;;;;;;;36.72;16.10;;;;;;;-0.13;71.58;96877.75;4986632;28;20046;-62
2022/02/01 07:07:18;;;;;;;33.20;14.98;;;;;;;-0.07;71.64;96886.44;4987180;28;20068;-61
2022/02/01 07:09:44;;;;;;;37.22;16.27;;;;;;;-0.05;72.28;96892.22;4988742;28;20420;-61
2022/02/01 07:12:10;;;;;;;40.75;15.75;;;;;;;-0.14;71.61;96897.00;4988517;28;20459;-61
2022/02/01 07:14:36;;;;;;;40.88;16.15;;;;;;;-0.08;72.10;96900.50;4983702;28;20057;-61
2022/02/01 07:17:02;;;;;;;40.08;17.48;;;;;;;-0.14;71.99;96893.63;4989331;28;20038;-61
2022/02/01 07:19:28;;;;;;;39.30;16.77;;;;;;;-0.04;72.69;96906.81;4985167;28;20050;-62
2022/02/01 07:21:53;;;;;;;36.05;16.27;;;;;;;0.07;72.66;96900.81;4987779;28;20085;-60
2022/02/01 07:24:27;;;;;;;42.33;17.35;;;;;;;0.14;71.64;96904.06;5004738;28;20162;-60
2022/02/01 07:26:57;;;;;;;42.67;16.90;;;;;;;0.21;71.36;96911.75;4988874;28;20042;-64
2022/02/01 07:29:23;;;;;;;44.92;17.67;;;;;;;0.28;71.33;96911.63;4986853;28;20563;-64
2022/02/01 07:31:49;;;;;;;44.90;19.17;;;;;;;0.32;71.95;96908.28;4986647;28;20296;-65
2022/02/01 07:34:15;;;;;;;44.97;19.30;;;;;;;0.47;71.63;96909.59;4987764;28;20543;-63
2022/02/01 07:36:42;;;;;;;47.88;19.00;;;;;;;0.58;70.78;96919.97;4989425;28;20128;-64
2022/02/01 07:39:09;;;;;;;43.63;19.33;;;;;;;0.68;70.91;96922.00;4977949;28;20130;-65
2022/02/01 07:41:35;;;;;;;46.75;19.08;;;;;;;0.71;70.11;96918.94;4968730;28;20042;-65
2022/02/01 07:44:01;;;;;;;49.53;20.40;;;;;;;0.59;70.37;96921.59;4976887;28;20042;-64
2022/02/01 07:46:29;;;;;;;44.63;18.05;;;;;;;0.54;71.28;96923.31;4975144;28;20038;-66
2022/02/01 07:48:55;;;;;;;48.35;19.13;;;;;;;0.59;71.11;96923.38;4984196;28;20043;-64
2022/02/01 07:51:20;;;;;;;40.20;18.00;;;;;;;0.64;71.79;96916.44;4970391;28;20077;-66
2022/02/01 07:53:46;;;;;;;47.47;18.35;;;;;;;0.74;70.63;96922.88;4969933;28;20141;-65
2022/02/01 07:56:13;;;;;;;49.75;17.80;;;;;;;0.71;70.07;96926.75;4969725;28;20078;-67
2022/02/01 07:58:40;;;;;;;44.58;18.33;;;;;;;0.80;70.07;96930.56;4992189;28;20038;-65
2022/02/01 08:01:06;;;;;;;47.53;18.67;;;;;;;0.93;70.50;96932.06;4984399;28;20046;-65
2022/02/01 08:03:32;;;;;;;44.80;19.08;;;;;;;1.10;70.07;96940.69;4970487;28;20447;-64
2022/02/01 08:05:57;;;;;;;51.88;19.88;;;;;;;1.20;69.36;96944.50;4995094;28;20042;-62
2022/02/01 08:08:24;;;;;;;48.83;19.20;;;;;;;1.30;69.68;96937.63;4977141;28;20565;-61
2022/02/01 08:10:52;;;;;;;51.33;19.60;;;;;;;1.42;69.37;96934.16;4962381;28;20050;-62
2022/02/01 08:21:43;;;;;;;47.90;20.40;;;;;;;1.05;69.75;96942.44;4972545;28;20102;-62
2022/02/01 08:24:09;;;;;;;46.72;18.95;;;;;;;1.27;69.56;96951.16;4953142;28;20513;-63
2022/02/01 08:26:35;;;;;;;55.35;19.67;;;;;;;1.31;68.90;96956.69;4984600;28;20133;-63
2022/02/01 08:29:01;;;;;;;52.33;18.95;;;;;;;1.38;69.35;96954.69;4991873;28;20082;-61
2022/02/01 08:31:27;;;;;;;48.00;19.88;;;;;;;1.48;68.98;96956.69;4992814;28;20077;-60
2022/02/01 08:33:53;;;;;;;46.55;18.88;;;;;;;1.63;68.93;96953.50;4987235;28;20074;-61
2022/02/01 08:36:19;;;;;;;51.35;19.33;;;;;;;1.69;68.57;96955.16;4973619;28;20539;-63
2022/02/01 08:38:45;;;;;;;44.25;17.58;;;;;;;1.69;68.41;96953.34;4988461;28;20508;-62
2022/02/01 08:41:12;;;;;;;48.85;19.13;;;;;;;1.80;68.26;96951.66;4992152;28;20428;-60
2022/02/01 08:43:38;;;;;;;49.88;19.08;;;;;;;1.80;67.46;96947.22;4986524;28;20070;-59
2022/02/01 08:46:03;;;;;;;43.70;17.17;;;;;;;1.80;68.45;96942.00;4988180;28;20588;-63
2022/02/01 08:48:29;;;;;;;44.50;17.40;;;;;;;1.86;68.17;96947.31;4992739;28;20042;-61
2022/02/01 08:51:00;;;;;;;39.03;17.10;;;;;;;1.93;67.78;96951.31;4993457;28;20085;-65
2022/02/01 08:53:32;;;;;;;46.08;17.42;;;;;;;1.96;66.96;96955.25;4991289;28;20046;-62
2022/02/01 08:58:26;;;;;;;42.13;18.52;;;;;;;2.03;67.21;96945.44;4990355;28;20061;-62
2022/02/01 09:00:53;;;;;;;43.75;17.98;;;;;;;1.99;66.96;96950.34;4992156;28;20045;-60
2022/02/01 09:03:19;;;;;;;47.13;17.30;;;;;;;2.11;67.13;96946.81;4989912;28;20529;-60
2022/02/01 09:05:48;;;;;;;43.33;16.60;;;;;;;2.11;66.46;96938.97;4990081;28;20038;-60
2022/02/01 09:08:14;;;;;;;47.38;18.15;;;;;;;2.05;66.09;96945.97;4990512;28;20096;-60
2022/02/01 09:10:41;;;;;;;42.13;16.92;;;;;;;2.19;67.19;96949.03;4988619;28;20043;-61
2022/02/01 09:13:08;;;;;;;37.50;16.10;;;;;;;2.23;66.29;96948.28;4990420;28;20038;-59
2022/02/01 09:15:34;;;;;;;42.88;16.20;;;;;;;2.25;65.48;96950.66;4990457;28;20062;-59
2022/02/01 09:18:00;;;;;;;39.65;15.82;;;;;;;2.27;65.47;96951.22;4989513;28;20591;-59
2022/02/01 09:20:27;;;;;;;37.28;15.48;;;;;;;2.27;65.34;96951.22;5006318;28;20046;-60
2022/02/01 09:22:53;;;;;;;40.65;16.05;;;;;;;2.20;64.86;96950.59;5006551;28;20046;-60
2022/02/01 09:25:20;;;;;;;33.22;14.27;;;;;;;2.21;65.22;96960.03;4988541;28;20046;-62
2022/02/01 09:27:48;;;;;;;34.78;14.70;;;;;;;2.21;65.66;96962.66;4989069;28;20466;-60
2022/02/01 09:30:17;;;;;;;37.00;14.32;;;;;;;2.23;65.41;96969.19;5000790;28;20458;-58
2022/02/01 09:32:43;;;;;;;31.42;12.90;;;;;;;2.20;65.65;96964.44;4991103;28;20304;-59
2022/02/01 09:35:10;;;;;;;32.95;13.25;;;;;;;2.26;65.00;96962.69;5006118;28;20139;-61
2022/02/01 09:37:35;;;;;;;33.28;13.48;;;;;;;2.39;64.03;96964.94;4989294;28;20076;-61
2022/02/01 09:40:02;;;;;;;29.02;12.77;;;;;;;2.49;63.71;96965.06;4988820;28;20078;-61
2022/02/01 09:42:29;;;;;;;29.70;12.40;;;;;;;2.58;64.11;96967.25;4991344;28;20104;-61
2022/02/01 09:44:56;;;;;;;30.77;12.07;;;;;;;2.57;63.64;96974.31;4991345;28;20043;-58
2022/02/01 09:47:32;;;;;;;29.13;12.23;;;;;;;2.47;63.74;96967.16;5002246;28;20097;-61
2022/02/01 09:49:58;;;;;;;27.15;12.45;;;;;;;2.31;64.42;96970.59;4973478;28;20113;-58
2022/02/01 09:52:24;;;;;;;19.73;8.80;;;;;;;2.34;64.37;96970.13;4972324;28;20047;-59
2022/02/01 09:54:52;;;;;;;24.73;10.18;;;;;;;2.42;64.17;96963.69;4972006;28;20051;-61
2022/02/01 09:57:21;;;;;;;25.02;11.00;;;;;;;2.43;63.69;96960.81;4972753;28;20407;-60
2022/02/01 09:59:57;;;;;;;22.02;9.57;;;;;;;2.39;63.20;96951.88;4986394;28;20073;-59
2022/02/01 10:02:41;;;;;;;25.23;10.68;;;;;;;2.44;63.94;96965.03;4985872;28;20492;-60
2022/02/01 10:05:12;;;;;;;28.40;11.50;;;;;;;2.52;63.41;96952.53;4992802;28;20136;-60
2022/02/01 10:07:57;;;;;;;26.30;10.05;;;;;;;2.52;62.90;96952.53;5006118;28;20046;-59
2022/02/01 10:10:25;;;;;;;19.17;8.13;;;;;;;2.44;63.28;96953.75;4985998;28;20053;-58
2022/02/01 10:13:21;;;;;;;24.17;9.90;;;;;;;2.42;63.89;96953.22;4973277;28;20055;-59
2022/02/01 10:18:50;;;;;;;19.02;9.10;;;;;;;2.39;63.53;96962.34;4986081;28;20039;-59
2022/02/01 10:21:16;;;;;;;16.70;8.02;;;;;;;2.38;62.97;96958.16;4971461;28;20409;-58
2022/02/01 10:23:44;;;;;;;17.30;7.70;;;;;;;2.38;63.15;96957.34;4980477;28;20133;-60
2022/02/01 10:26:20;;;;;;;15.63;7.60;;;;;;;2.26;64.29;96960.06;4988867;28;20100;-59
2022/02/01 10:29:14;;;;;;;16.77;8.05;;;;;;;2.28;64.17;96961.41;4990994;28;20495;-56
2022/02/01 10:31:48;;;;;;;17.88;8.40;;;;;;;2.17;63.59;96962.31;4975006;28;20430;-61
2022/02/01 10:37:20;;;;;;;15.23;7.97;;;;;;;2.24;64.29;96972.63;4986920;28;20504;-58
2022/02/01 10:39:48;;;;;;;19.55;8.35;;;;;;;2.19;64.51;96967.31;4986624;28;20166;-59
2022/02/01 10:42:27;;;;;;;19.73;8.90;;;;;;;2.16;65.56;96962.56;4970927;28;20128;-57
2022/02/01 10:45:00;;;;;;;18.10;8.25;;;;;;;2.17;64.32;96969.38;4981312;28;20054;-61
2022/02/01 10:47:41;;;;;;;18.80;8.90;;;;;;;2.28;65.31;96964.03;4988388;28;20419;-57
2022/02/01 10:50:12;;;;;;;27.58;9.27;;;;;;;2.34;64.51;96961.47;4972880;28;20038;-59
2022/02/01 10:52:47;;;;;;;18.95;9.02;;;;;;;2.30;64.50;96963.03;5004216;28;20046;-60
2022/02/01 10:55:14;;;;;;;23.35;9.65;;;;;;;2.28;63.90;96968.47;4989585;28;20057;-61
2022/02/01 10:57:41;;;;;;;18.70;9.38;;;;;;;2.25;64.05;96964.53;5004413;28;20065;-58
2022/02/01 11:00:09;;;;;;;24.38;9.25;;;;;;;2.39;64.15;96979.84;4969087;28;20535;-59
2022/02/01 11:02:42;;;;;;;17.40;8.50;;;;;;;2.50;63.86;96971.09;5004936;28;20042;-60
2022/02/01 11:05:19;;;;;;;20.27;8.75;;;;;;;2.54;63.99;96980.03;4971935;28;20046;-61
2022/02/01 11:07:49;;;;;;;16.25;7.70;;;;;;;2.43;63.45;96979.09;4986023;28;20443;-64
2022/02/01 11:10:15;;;;;;;16.85;8.43;;;;;;;2.24;64.26;96977.84;4987698;28;20050;-62
2022/02/01 11:12:41;;;;;;;15.05;7.88;;;;;;;2.23;64.22;96981.47;4984304;28;20522;-62
2022/02/01 11:15:27;;;;;;;16.70;8.35;;;;;;;2.19;63.80;96986.41;4977429;28;20509;-63
2022/02/01 11:17:53;;;;;;;15.77;8.00;;;;;;;2.11;64.01;96981.59;4971266;28;20046;-61
2022/02/01 11:20:28;;;;;;;15.02;8.65;;;;;;;1.99;64.48;96989.53;4973345;28;20041;-64
2022/02/01 11:23:04;;;;;;;17.63;7.80;;;;;;;1.95;64.59;96988.44;4970339;28;20109;-63
2022/02/01 11:25:43;;;;;;;20.83;8.65;;;;;;;2.02;63.59;96994.28;4988952;28;20039;-62
2022/02/01 11:28:16;;;;;;;14.40;7.65;;;;;;;1.91;64.93;96991.75;4988567;28;20042;-62
2022/02/01 11:30:45;;;;;;;19.92;8.88;;;;;;;2.00;65.38;96993.75;4989986;28;20055;-63
2022/02/01 11:33:12;;;;;;;16.77;8.30;;;;;;;2.03;64.91;96998.50;4979992;28;20041;-65
2022/02/01 11:35:39;;;;;;;12.20;7.03;;;;;;;1.83;64.19;96986.97;5000226;28;20385;-65
2022/02/01 11:38:08;;;;;;;10.95;6.53;;;;;;;1.77;63.51;97002.56;4968276;28;20041;-64
2022/02/01 11:40:36;;;;;;;20.80;8.80;;;;;;;1.69;64.05;96996.94;4970136;28;20126;-65
2022/02/01 11:43:06;;;;;;;13.57;6.60;;;;;;;1.83;63.62;97000.03;4985400;28;20408;-65
2022/02/01 11:45:37;;;;;;;13.27;7.05;;;;;;;1.77;64.13;97007.00;4966451;28;20054;-64
2022/02/01 11:48:16;;;;;;;12.27;7.07;;;;;;;1.75;64.34;97004.59;4967741;28;20625;-63
2022/02/01 11:50:52;;;;;;;14.35;6.57;;;;;;;1.67;64.50;97005.00;4967334;28;20198;-63
2022/02/01 11:53:24;;;;;;;14.00;7.15;;;;;;;1.54;64.23;97006.13;4969602;28;20524;-63
2022/02/01 11:55:52;;;;;;;15.82;6.82;;;;;;;1.41;64.97;97014.25;4968125;28;20428;-64
2022/02/01 11:58:37;;;;;;;12.45;6.20;;;;;;;1.44;64.87;97013.81;4969386;28;20042;-61
2022/02/01 12:01:23;;;;;;;12.55;6.32;;;;;;;1.45;64.31;97017.22;4979198;28;20078;-64
2022/02/01 12:04:07;;;;;;;10.90;7.00;;;;;;;1.33;64.34;97020.66;4970836;28;20058;-61
2022/02/01 12:06:45;;;;;;;12.13;6.20;;;;;;;1.30;63.77;97017.75;4997444;28;20054;-63
2022/02/01 12:09:19;;;;;;;10.05;5.82;;;;;;;1.32;63.74;97033.94;4989793;28;20121;-63
2022/02/01 12:11:46;;;;;;;10.07;5.55;;;;;;;1.04;64.24;97026.94;4986986;28;20093;-65
2022/02/01 12:14:11;;;;;;;15.45;5.93;;;;;;;1.03;64.85;97041.81;4986760;28;20074;-63
2022/02/01 12:16:49;;;;;;;9.07;5.53;;;;;;;1.15;63.93;97036.53;4988897;28;20073;-64
2022/02/01 12:19:27;;;;;;;5.97;3.97;;;;;;;1.10;62.77;97033.84;4988476;28;20477;-63
2022/02/01 12:22:24;;;;;;;8.40;4.18;;;;;;;1.04;62.71;97038.16;4988187;28;20038;-64
2022/02/01 12:24:50;;;;;;;6.57;3.53;;;;;;;1.04;62.33;97046.00;4988729;28;20054;-64
2022/02/01 12:27:16;;;;;;;7.18;3.20;;;;;;;1.06;62.49;97050.97;4997965;28;20065;-65
2022/02/01 12:29:41;;;;;;;6.55;3.50;;;;;;;1.06;62.56;97062.22;4969164;28;20532;-66
2022/02/01 12:32:09;;;;;;;7.53;3.83;;;;;;;1.04;62.34;97058.25;4969615;28;20472;-62
2022/02/01 12:34:35;;;;;;;6.25;3.83;;;;;;;1.08;62.54;97061.97;4968039;28;20129;-62
2022/02/01 12:37:01;;;;;;;7.82;3.60;;;;;;;1.01;63.69;97054.28;4967420;28;20140;-60
2022/02/01 12:39:35;;;;;;;7.25;4.07;;;;;;;1.03;64.14;97067.91;4968484;28;20085;-62
2022/02/01 12:47:01;;;;;;;8.00;3.45;;;;;;;1.08;63.58;97064.59;4979488;28;20536;-61
2022/02/01 12:49:59;;;;;;;6.72;3.78;;;;;;;0.96;63.94;97066.44;4985196;28;20589;-62
2022/02/01 12:52:28;;;;;;;5.40;3.58;;;;;;;0.97;63.99;97068.84;4984750;28;20084;-60
2022/02/01 12:55:04;;;;;;;9.18;4.18;;;;;;;1.04;63.82;97053.81;4984890;28;20046;-62
2022/02/01 12:57:31;;;;;;;7.85;4.05;;;;;;;1.10;63.85;97058.09;4987925;28;20043;-61
2022/02/01 13:00:13;;;;;;;12.13;3.88;;;;;;;1.07;63.72;97050.75;4965521;28;20257;-61
2022/02/01 13:02:39;;;;;;;9.23;4.25;;;;;;;1.05;63.29;97046.78;4967565;28;20428;-60
2022/02/01 13:05:08;;;;;;;7.78;3.47;;;;;;;0.98;63.10;97046.16;4967989;28;20097;-60
2022/02/01 13:21:18;;;;;;;6.25;3.65;;;;;;;0.82;63.23;97061.47;4988184;28;20096;-61
2022/02/01 13:23:56;;;;;;;12.15;4.63;;;;;;;0.89;64.80;97056.94;4988791;28;20057;-61
2022/02/01 13:26:26;;;;;;;10.95;4.15;;;;;;;0.89;64.36;97064.78;4992792;28;20042;-59
2022/02/01 13:29:06;;;;;;;6.35;4.00;;;;;;;0.90;64.60;97062.94;4982860;28;20094;-63
2022/02/01 13:31:34;;;;;;;6.80;3.90;;;;;;;0.90;63.63;97068.94;4991408;28;20053;-60
2022/02/01 13:34:04;;;;;;;9.27;3.88;;;;;;;0.88;65.12;97078.84;4989428;28;20049;-60
2022/02/01 13:36:50;;;;;;;10.02;4.63;;;;;;;0.86;63.68;97080.09;5005186;28;20078;-59